Time;durP1;ratioP1;P1;durP2;ratioP2;P2;SDS_P1;SDS_P2;PMS_P1;PMS_P2;Temp;Humidity;BMP_temperature;BMP_pressure;BME280_temperature;BME280_humidity;BME280_pressure;Samples;Min_cycle;Max_cycle;Signal;HPM_P1;HPM_P2
2022/07/08 00:02:19;;;;;;;8.90;2.47;;;;;;;16.35;83.61;101929.53;8309419;28;20303;-61
2022/07/08 00:06:19;;;;;;;20.17;2.95;;;;;;;16.39;83.89;101932.84;8291305;28;20335;-61
2022/07/08 00:10:21;;;;;;;13.70;1.77;;;;;;;16.43;84.01;101931.53;8291328;28;20586;-61
2022/07/08 00:14:23;;;;;;;11.50;2.72;;;;;;;16.40;84.29;101927.25;8297345;28;20042;-61
2022/07/08 00:18:23;;;;;;;8.52;2.03;;;;;;;16.40;84.32;101934.56;8295699;28;20045;-61
2022/07/08 00:22:23;;;;;;;10.98;1.77;;;;;;;16.38;84.74;101928.41;8296272;28;20125;-60
2022/07/08 00:26:24;;;;;;;19.50;2.67;;;;;;;16.38;84.88;101933.88;8297200;28;20122;-60
2022/07/08 00:30:24;;;;;;;17.73;2.33;;;;;;;16.36;85.28;101941.31;8296429;28;20030;-60
2022/07/08 00:34:25;;;;;;;13.35;2.75;;;;;;;16.34;85.35;101937.88;8297088;28;20122;-60
2022/07/08 00:38:25;;;;;;;16.55;2.85;;;;;;;16.36;85.91;101941.31;8296293;28;20121;-61
2022/07/08 00:42:25;;;;;;;14.38;2.30;;;;;;;16.32;85.99;101934.44;8295866;28;20062;-60
2022/07/08 00:46:26;;;;;;;13.25;2.20;;;;;;;16.25;86.30;101944.22;8296182;28;20038;-60
2022/07/08 00:50:26;;;;;;;7.45;2.00;;;;;;;16.26;87.11;101940.47;8293986;28;20046;-60
2022/07/08 00:54:27;;;;;;;17.30;2.75;;;;;;;16.17;87.45;101946.78;8296080;28;20062;-60
2022/07/08 00:58:30;;;;;;;12.20;2.10;;;;;;;16.19;87.33;101950.22;8295875;28;20128;-60
2022/07/08 01:02:30;;;;;;;15.18;1.98;;;;;;;16.24;88.01;101939.75;8295869;28;20038;-60
2022/07/08 01:06:31;;;;;;;16.75;2.40;;;;;;;16.18;87.35;101952.09;8295357;28;20149;-60
2022/07/08 01:10:32;;;;;;;12.05;3.15;;;;;;;16.17;87.84;101954.97;8289795;28;20137;-60
2022/07/08 01:14:32;;;;;;;10.65;2.15;;;;;;;16.16;87.27;101953.25;8292931;28;20076;-60
2022/07/08 01:18:45;;;;;;;14.40;2.45;;;;;;;16.18;86.99;101949.38;8293768;28;20042;-60
2022/07/08 01:22:45;;;;;;;11.73;2.40;;;;;;;16.16;86.73;101956.81;8294886;28;20092;-60
2022/07/08 01:26:45;;;;;;;15.80;2.15;;;;;;;16.14;87.21;101958.84;8295202;28;20088;-60
2022/07/08 01:30:46;;;;;;;11.02;2.30;;;;;;;16.20;87.36;101954.69;8293937;28;20034;-60
2022/07/08 01:34:46;;;;;;;19.15;2.88;;;;;;;16.14;87.51;101958.84;8292419;28;20125;-60
2022/07/08 01:38:47;;;;;;;11.70;2.30;;;;;;;16.14;87.58;101953.38;8292580;28;20052;-60
2022/07/08 01:42:47;;;;;;;10.93;1.88;;;;;;;16.09;87.01;101954.78;8293376;28;20773;-60
2022/07/08 01:46:47;;;;;;;12.50;2.43;;;;;;;16.10;86.26;101949.19;8294346;28;20082;-60
2022/07/08 01:50:48;;;;;;;13.30;2.33;;;;;;;16.09;86.35;101957.53;8294163;28;20273;-60
2022/07/08 01:54:50;;;;;;;16.00;1.92;;;;;;;16.08;86.29;101945.78;8294422;28;20273;-60
2022/07/08 01:58:50;;;;;;;10.60;2.30;;;;;;;16.07;86.08;101945.91;8293381;28;20026;-60
2022/07/08 02:02:51;;;;;;;8.77;2.07;;;;;;;16.05;86.20;101948.78;8292825;28;20144;-60
2022/07/08 02:06:51;;;;;;;10.30;2.10;;;;;;;16.05;87.04;101948.78;8294303;28;20276;-60
2022/07/08 02:12:23;;;;;;;14.93;3.13;;;;;;;15.99;86.90;101948.47;8293426;28;20768;-60
2022/07/08 02:15:12;;;;;;;10.43;2.70;;;;;;;15.98;87.33;101955.78;8293553;28;20561;-60
2022/07/08 02:19:12;;;;;;;9.40;2.38;;;;;;;15.95;86.81;101957.94;8293148;28;20061;-60
2022/07/08 02:23:12;;;;;;;10.45;1.90;;;;;;;15.94;86.86;101948.00;8293274;28;20037;-60
2022/07/08 02:27:13;;;;;;;13.37;2.60;;;;;;;15.96;86.92;101948.75;8293087;28;20394;-60
2022/07/08 02:31:14;;;;;;;12.68;2.45;;;;;;;15.93;87.48;101949.03;8293172;28;20268;-60
2022/07/08 02:35:14;;;;;;;13.68;2.83;;;;;;;15.97;86.58;101947.72;8292309;28;20037;-60
2022/07/08 02:39:15;;;;;;;14.97;2.10;;;;;;;15.94;87.46;101945.28;8292023;28;20042;-60
2022/07/08 02:43:15;;;;;;;7.07;1.77;;;;;;;15.87;88.40;101949.59;8292387;28;20645;-60
2022/07/08 02:47:16;;;;;;;7.75;2.00;;;;;;;15.92;87.20;101941.84;8291877;28;20118;-60
2022/07/08 02:51:16;;;;;;;14.70;2.55;;;;;;;15.91;87.32;101942.84;8291828;28;20037;-60
2022/07/08 02:55:17;;;;;;;8.77;2.17;;;;;;;15.92;86.96;101952.75;8292520;28;20037;-60
2022/07/08 02:59:18;;;;;;;20.50;2.67;;;;;;;15.89;86.97;101955.78;8291133;28;20092;-60
2022/07/08 03:03:18;;;;;;;7.50;1.98;;;;;;;15.88;87.19;101956.75;8292569;28;20073;-60
2022/07/08 03:07:19;;;;;;;10.85;2.40;;;;;;;15.88;87.03;101952.16;8291847;28;20034;-60
2022/07/08 03:11:20;;;;;;;11.85;2.38;;;;;;;15.85;86.90;101957.06;8292606;28;20041;-60
2022/07/08 03:15:20;;;;;;;16.13;2.30;;;;;;;15.86;86.69;101942.41;8292409;28;20034;-60
2022/07/08 03:19:20;;;;;;;14.25;1.90;;;;;;;15.86;87.03;101958.78;8291756;28;20042;-60
2022/07/08 03:23:21;;;;;;;13.73;2.03;;;;;;;15.82;86.45;101951.88;8292571;28;20117;-60
2022/07/08 03:27:21;;;;;;;11.77;2.20;;;;;;;15.83;87.08;101959.06;8291792;28;20494;-60
2022/07/08 03:31:22;;;;;;;9.18;2.05;;;;;;;15.79;86.46;101960.34;8292151;28;20061;-60
2022/07/08 03:35:22;;;;;;;12.27;2.10;;;;;;;15.71;87.11;101961.88;8292585;28;20512;-60
2022/07/08 03:39:22;;;;;;;10.73;1.83;;;;;;;15.67;87.69;101965.91;8291758;28;20034;-60
2022/07/08 03:43:23;;;;;;;8.75;1.70;;;;;;;15.65;87.28;101967.88;8290620;28;20528;-60
2022/07/08 03:47:23;;;;;;;10.70;2.08;;;;;;;15.60;88.04;101970.19;8295265;28;20030;-60
2022/07/08 03:51:24;;;;;;;13.20;2.13;;;;;;;15.58;88.46;101974.91;8298452;28;20101;-60
2022/07/08 03:55:25;;;;;;;11.45;1.95;;;;;;;15.58;88.43;101972.16;8298345;28;20058;-60
2022/07/08 03:59:25;;;;;;;10.80;1.90;;;;;;;15.58;88.10;101972.16;8297141;28;20042;-60
2022/07/08 04:03:25;;;;;;;16.23;2.28;;;;;;;15.61;87.61;101971.91;8289947;28;20042;-60
2022/07/08 04:07:26;;;;;;;9.07;2.30;;;;;;;15.62;87.84;101967.31;8297587;28;20450;-60
2022/07/08 04:11:26;;;;;;;10.50;2.38;;;;;;;15.56;87.85;101974.16;8293047;28;20129;-60
2022/07/08 04:15:27;;;;;;;14.03;1.90;;;;;;;15.61;87.80;101985.53;8294559;28;20554;-60
2022/07/08 04:19:27;;;;;;;12.20;2.38;;;;;;;15.68;87.30;101983.97;8293468;28;20327;-60
2022/07/08 04:23:27;;;;;;;11.30;2.13;;;;;;;15.73;87.17;101983.56;8297066;28;20037;-60
2022/07/08 04:27:28;;;;;;;9.70;1.90;;;;;;;15.92;86.62;101997.25;8295798;28;20510;-60
2022/07/08 04:31:28;;;;;;;12.43;1.90;;;;;;;16.01;85.65;102006.50;8285409;28;20273;-60
2022/07/08 04:35:29;;;;;;;14.65;2.35;;;;;;;16.10;85.25;102011.13;8294081;28;20402;-60
2022/07/08 04:39:29;;;;;;;10.17;2.30;;;;;;;16.12;85.37;102003.63;8291329;28;20038;-60
2022/07/08 04:43:30;;;;;;;8.67;2.03;;;;;;;16.13;85.86;102010.84;8291099;28;20372;-60
2022/07/08 04:47:30;;;;;;;11.52;2.47;;;;;;;16.10;85.86;102013.84;8287203;28;20741;-60
2022/07/08 04:51:30;;;;;;;11.18;2.00;;;;;;;16.02;86.96;102008.22;8292945;28;20045;-60
2022/07/08 04:55:31;;;;;;;7.57;2.13;;;;;;;15.95;86.49;102023.41;8288794;28;20056;-60
2022/07/08 04:59:32;;;;;;;13.30;2.35;;;;;;;15.82;87.44;102017.34;8291105;28;20506;-60
2022/07/08 05:03:32;;;;;;;15.63;2.67;;;;;;;15.78;87.90;102011.28;8291593;28;20034;-60
2022/07/08 05:07:32;;;;;;;8.60;2.60;;;;;;;15.79;89.25;102017.63;8290792;28;20065;-60
2022/07/08 05:11:33;;;;;;;16.07;3.03;;;;;;;15.69;88.95;102023.91;8292073;28;20045;-60
2022/07/08 05:15:34;;;;;;;16.27;2.87;;;;;;;15.65;90.47;102033.31;8291938;28;21061;-60
2022/07/08 05:19:34;;;;;;;18.88;2.60;;;;;;;15.71;91.34;102027.31;8290431;28;20280;-60
2022/07/08 05:23:34;;;;;;;15.63;2.90;;;;;;;15.68;91.12;102033.06;8290133;28;20044;-60
2022/07/08 05:27:35;;;;;;;11.35;2.75;;;;;;;15.74;90.52;102027.06;8290923;28;20379;-60
2022/07/08 05:31:36;;;;;;;14.57;2.63;;;;;;;15.68;90.78;102033.06;8290835;28;20041;-60
2022/07/08 05:35:36;;;;;;;10.77;2.75;;;;;;;15.59;90.62;102031.13;8280699;28;20526;-60
2022/07/08 05:39:39;;;;;;;24.23;3.00;;;;;;;15.66;90.77;102048.72;8286084;28;20038;-60
2022/07/08 05:43:40;;;;;;;16.73;3.88;;;;;;;15.54;90.52;102046.19;8283433;28;20034;-60
2022/07/08 05:47:40;;;;;;;11.77;3.08;;;;;;;15.57;89.94;102052.25;8286486;28;20497;-60
2022/07/08 05:51:40;;;;;;;18.83;3.20;;;;;;;15.69;89.09;102055.75;8288946;28;20564;-60
2022/07/08 05:55:41;;;;;;;15.43;3.40;;;;;;;15.74;89.28;102051.59;8287007;28;20114;-60
2022/07/08 05:59:42;;;;;;;11.25;2.70;;;;;;;15.73;88.82;102056.34;8289303;28;20700;-60
2022/07/08 06:03:50;;;;;;;8.13;2.83;;;;;;;15.76;88.27;102069.72;8290032;28;20046;-60
2022/07/08 06:07:50;;;;;;;14.98;2.67;;;;;;;15.89;88.37;102078.53;8287409;28;20033;-60
2022/07/08 06:11:51;;;;;;;8.02;2.47;;;;;;;16.04;88.19;102082.59;8289103;28;20061;-60
2022/07/08 06:15:51;;;;;;;13.82;3.17;;;;;;;16.15;87.41;102080.63;8289563;28;20167;-60
2022/07/08 06:19:52;;;;;;;13.63;2.30;;;;;;;16.28;86.02;102074.94;8288526;28;20069;-60
2022/07/08 06:23:53;;;;;;;14.70;2.85;;;;;;;16.36;85.22;102080.56;8289814;28;20034;-60
2022/07/08 06:27:53;;;;;;;15.85;2.55;;;;;;;16.38;85.14;102086.75;8288805;28;20033;-60
2022/07/08 06:31:54;;;;;;;14.68;2.38;;;;;;;16.38;84.86;102082.13;8288829;28;20116;-60
2022/07/08 06:35:54;;;;;;;16.58;2.97;;;;;;;16.40;84.73;102084.72;8289709;28;20079;-60
2022/07/08 06:39:54;;;;;;;17.15;2.63;;;;;;;16.58;84.75;102094.00;8288377;28;20042;-60
2022/07/08 06:43:55;;;;;;;10.75;2.17;;;;;;;16.59;83.02;102101.19;8288641;28;20387;-60
2022/07/08 06:47:55;;;;;;;11.50;1.83;;;;;;;16.92;82.79;102092.59;8288233;28;20042;-60
2022/07/08 06:51:56;;;;;;;15.30;2.20;;;;;;;17.42;80.40;102091.44;8285129;28;20045;-60
2022/07/08 06:55:56;;;;;;;9.90;2.00;;;;;;;17.22;80.29;102103.38;8287885;28;20042;-60
2022/07/08 06:59:56;;;;;;;8.57;1.60;;;;;;;17.31;77.46;102089.72;8288040;28;20657;-60
2022/07/08 07:03:57;;;;;;;7.55;1.50;;;;;;;17.43;76.64;102093.19;8286713;28;20384;-60
2022/07/08 07:07:57;;;;;;;10.47;1.63;;;;;;;17.67;76.01;102095.44;8287462;28;20108;-60
2022/07/08 07:11:58;;;;;;;12.25;1.42;;;;;;;18.17;75.27;102094.97;8287527;28;20281;-60
2022/07/08 07:15:58;;;;;;;8.52;1.60;;;;;;;18.72;73.24;102085.72;8285492;28;20034;-60
2022/07/08 07:19:59;;;;;;;9.63;1.48;;;;;;;19.18;71.49;102088.25;8284549;28;20466;-60
2022/07/08 07:23:59;;;;;;;10.80;2.03;;;;;;;19.72;71.09;102089.03;8293789;28;20134;-60
2022/07/08 07:27:59;;;;;;;8.03;1.60;;;;;;;20.61;69.76;102091.22;8293996;28;20026;-60
2022/07/08 07:32:00;;;;;;;6.70;1.60;;;;;;;20.00;67.31;102088.69;8293931;28;20672;-60
2022/07/08 07:36:00;;;;;;;8.80;1.40;;;;;;;19.65;68.68;102082.47;8289568;28;20300;-60
2022/07/08 07:40:03;;;;;;;7.10;1.23;;;;;;;18.92;69.84;102087.31;8286223;28;20041;-60
2022/07/08 07:44:04;;;;;;;10.68;1.67;;;;;;;18.42;71.13;102099.75;8287433;28;20099;-60
2022/07/08 07:48:05;;;;;;;12.23;1.85;;;;;;;18.42;70.28;102102.50;8287806;28;20212;-60
2022/07/08 07:52:06;;;;;;;8.02;1.27;;;;;;;19.24;73.19;102104.06;8285638;28;20030;-60
2022/07/08 07:56:06;;;;;;;14.15;1.50;;;;;;;19.11;69.42;102111.84;8287876;28;20037;-60
2022/07/08 08:00:09;;;;;;;5.00;1.38;;;;;;;19.14;71.46;102108.78;8286948;28;20045;-60
2022/07/08 08:04:09;;;;;;;7.45;1.20;;;;;;;19.47;69.89;102126.41;8286306;28;20046;-60
2022/07/08 08:08:10;;;;;;;7.28;1.58;;;;;;;19.02;69.32;102128.34;8286624;28;20071;-60
2022/07/08 08:12:10;;;;;;;9.82;1.73;;;;;;;19.30;70.67;102117.19;8286569;28;20053;-60
2022/07/08 08:16:11;;;;;;;4.83;1.10;;;;;;;19.91;68.30;102124.53;8286811;28;20727;-60
2022/07/08 08:20:12;;;;;;;7.37;1.17;;;;;;;19.61;65.95;102122.25;8286668;28;20041;-60
2022/07/08 08:24:12;;;;;;;8.57;1.45;;;;;;;19.38;67.20;102122.75;8286686;28;20280;-60
2022/07/08 08:28:13;;;;;;;10.68;1.38;;;;;;;19.55;69.45;102128.38;8286874;28;20068;-60
2022/07/08 08:32:13;;;;;;;7.90;1.33;;;;;;;19.56;66.03;102119.09;8283935;28;20045;-60
2022/07/08 08:36:14;;;;;;;6.90;1.58;;;;;;;19.96;66.38;102119.38;8286325;28;20426;-60
2022/07/08 08:40:14;;;;;;;7.47;1.00;;;;;;;19.38;66.49;102122.75;8277427;28;20041;-60
2022/07/08 08:44:14;;;;;;;12.45;1.55;;;;;;;19.56;67.31;102124.59;8284784;28;20092;-60
2022/07/08 08:48:17;;;;;;;7.07;1.33;;;;;;;20.24;65.86;102115.44;8283769;28;20489;-61
2022/07/08 08:52:17;;;;;;;10.73;1.27;;;;;;;19.64;64.63;102130.16;8285706;28;20116;-61
2022/07/08 08:56:18;;;;;;;7.70;1.45;;;;;;;19.88;64.72;102109.22;8286128;28;20530;-61
2022/07/08 09:00:19;;;;;;;8.10;1.40;;;;;;;20.22;63.81;102109.28;8284314;28;20046;-61
2022/07/08 09:04:20;;;;;;;9.05;1.58;;;;;;;20.21;63.50;102104.78;8284511;28;20057;-61
2022/07/08 09:08:20;;;;;;;5.50;1.20;;;;;;;21.45;64.69;102101.00;8285215;28;20054;-61
2022/07/08 09:12:22;;;;;;;10.32;1.10;;;;;;;21.83;61.63;102097.53;8284841;28;20088;-61
2022/07/08 09:16:23;;;;;;;12.15;1.88;;;;;;;21.85;61.19;102089.97;8285339;28;20449;-61
2022/07/08 09:20:23;;;;;;;9.55;1.83;;;;;;;22.05;62.08;102096.78;8287179;28;20129;-61
2022/07/08 09:24:23;;;;;;;8.95;1.55;;;;;;;21.70;62.84;102094.44;8287787;28;20399;-61
2022/07/08 09:28:32;;;;;;;8.23;1.20;;;;;;;21.89;60.08;102091.31;8284999;28;20549;-61
2022/07/08 09:32:32;;;;;;;6.45;1.02;;;;;;;22.06;60.70;102092.16;8278760;28;20284;-61
2022/07/08 09:36:49;;;;;;;7.53;1.42;;;;;;;21.81;59.81;102090.50;8284891;28;20037;-61
2022/07/08 09:40:59;;;;;;;7.70;0.90;;;;;;;21.50;60.72;102084.81;8251094;28;20042;-61
2022/07/08 09:44:59;;;;;;;7.32;1.38;;;;;;;21.49;59.68;102099.63;8282378;28;20053;-61
2022/07/08 09:49:00;;;;;;;6.38;1.55;;;;;;;21.41;59.74;102102.38;8284139;28;20050;-61
2022/07/08 09:53:10;;;;;;;5.95;1.40;;;;;;;21.99;59.36;102097.50;8285029;28;20113;-61
2022/07/08 09:57:13;;;;;;;7.22;1.30;;;;;;;22.28;62.92;102092.25;8278271;28;20037;-61
2022/07/08 10:01:13;;;;;;;6.65;1.30;;;;;;;23.41;59.60;102097.09;8282254;28;20153;-61
2022/07/08 10:05:14;;;;;;;9.50;1.70;;;;;;;23.37;57.03;102095.78;8282808;28;20553;-61
2022/07/08 10:09:15;;;;;;;7.78;1.13;;;;;;;25.38;55.53;102083.94;8285083;28;20065;-60
2022/07/08 10:13:18;;;;;;;7.80;1.23;;;;;;;25.62;52.42;102088.19;8285892;28;20533;-57
2022/07/08 10:17:20;;;;;;;4.60;1.08;;;;;;;26.37;50.96;102095.56;8286396;28;20640;-61
2022/07/08 10:21:24;;;;;;;8.82;1.40;;;;;;;26.54;48.97;102096.09;8288004;28;20449;-61
2022/07/08 10:25:25;;;;;;;;;;;;;;;26.60;49.32;102101.66;8286388;28;20132;-61
2022/07/08 10:29:30;;;;;;;7.95;1.20;;;;;;;27.20;48.67;102088.84;8308516;28;19924;-61
2022/07/08 10:33:31;;;;;;;8.93;1.48;;;;;;;27.09;48.34;102078.34;8283998;28;20041;-61
2022/07/08 10:37:49;;;;;;;10.77;1.60;;;;;;;29.12;47.59;102080.56;8286489;28;20962;-62
2022/07/08 10:42:06;;;;;;;7.47;1.63;;;;;;;28.41;48.00;102087.31;8282863;28;20096;-61
2022/07/08 10:46:12;;;;;;;5.60;1.20;;;;;;;28.02;48.07;102087.41;8283923;28;20105;-61
2022/07/08 10:50:13;;;;;;;4.95;1.20;;;;;;;28.62;46.26;102089.81;8281572;28;20073;-61
2022/07/08 10:54:31;;;;;;;4.13;1.03;;;;;;;27.81;47.53;102088.47;8287372;28;20037;-61
2022/07/08 10:59:11;;;;;;;4.45;1.05;;;;;;;29.46;46.49;102091.25;8281826;28;20724;-61
2022/07/08 11:03:11;;;;;;;5.30;1.10;;;;;;;28.18;48.47;102084.19;8284265;28;20044;-61
2022/07/08 11:11:29;;;;;;;10.40;2.03;;;;;;;28.72;46.90;102073.50;8385080;27;20353;-60
2022/07/08 11:15:29;;;;;;;8.45;1.88;;;;;;;26.98;49.69;102060.38;8380596;28;20036;-60
2022/07/08 11:19:32;;;;;;;6.50;1.27;;;;;;;28.33;48.21;102073.66;8379493;28;20585;-60
2022/07/08 11:23:32;;;;;;;6.85;1.45;;;;;;;26.87;50.06;102066.56;8381698;28;20404;-60
2022/07/08 11:27:33;;;;;;;6.15;1.58;;;;;;;27.07;49.43;102070.22;8373950;28;20055;-60
2022/07/08 11:31:34;;;;;;;5.13;1.33;;;;;;;26.98;49.37;102071.50;8370728;28;20040;-60
2022/07/08 11:35:38;;;;;;;4.97;1.20;;;;;;;25.81;51.36;102077.28;8357324;28;20071;-60
2022/07/08 11:39:39;;;;;;;77.68;5.30;;;;;;;26.20;51.38;102065.63;8383032;28;20101;-60
2022/07/08 11:43:41;;;;;;;9.13;1.10;;;;;;;27.74;49.83;102068.16;8379923;28;20115;-60
2022/07/08 11:47:42;;;;;;;7.13;1.17;;;;;;;27.14;50.13;102053.59;8379888;28;20033;-60
2022/07/08 11:51:45;;;;;;;6.03;1.40;;;;;;;26.25;51.27;102057.50;8378711;28;20562;-61
2022/07/08 11:55:46;;;;;;;14.35;1.25;;;;;;;27.29;49.16;102051.50;8356827;28;20041;-60
2022/07/08 11:59:48;;;;;;;8.83;1.37;;;;;;;30.61;45.93;102045.91;8368258;28;20560;-60
2022/07/08 12:03:49;;;;;;;6.68;1.45;;;;;;;30.73;45.10;102052.41;8347159;28;20317;-60
2022/07/08 12:07:49;;;;;;;4.18;1.08;;;;;;;29.44;45.46;102051.63;8341494;28;20044;-60
2022/07/08 12:11:53;;;;;;;7.18;1.17;;;;;;;27.22;49.00;102054.22;8348441;28;20496;-60
2022/07/08 12:15:53;;;;;;;5.10;1.30;;;;;;;25.71;52.64;102049.03;8340677;28;20398;-60
2022/07/08 12:19:55;;;;;;;11.83;1.60;;;;;;;24.97;54.14;102041.31;8341649;28;20041;-60
2022/07/08 12:24:02;;;;;;;6.28;1.30;;;;;;;25.13;54.69;102026.38;8324720;28;20506;-60
2022/07/08 12:28:02;;;;;;;7.47;1.20;;;;;;;24.98;55.02;102029.22;8318362;28;20049;-60
2022/07/08 12:32:04;;;;;;;7.70;1.58;;;;;;;24.92;55.55;102032.78;8325050;28;20095;-60
2022/07/08 12:36:25;;;;;;;6.45;1.00;;;;;;;25.05;55.47;102030.13;8324234;28;20490;-60
2022/07/08 12:40:25;;;;;;;9.25;1.63;;;;;;;25.06;55.17;102031.00;8324157;28;20283;-60
2022/07/08 12:44:32;;;;;;;8.33;1.20;;;;;;;24.80;55.95;102031.56;8317212;28;20059;-60
2022/07/08 12:48:45;;;;;;;6.93;1.40;;;;;;;25.02;55.45;102027.75;8317404;28;20284;-60
2022/07/08 12:52:46;;;;;;;5.33;1.47;;;;;;;24.99;56.50;102019.84;8324003;28;20084;-60
2022/07/08 12:56:46;;;;;;;13.10;1.85;;;;;;;25.16;54.45;102023.19;8318785;28;20045;-60
2022/07/08 13:00:46;;;;;;;12.77;1.13;;;;;;;25.36;55.20;102021.47;8323848;28;20536;-60
2022/07/08 13:04:47;;;;;;;6.20;1.37;;;;;;;25.09;54.48;102025.06;8321525;28;20292;-60
2022/07/08 13:08:47;;;;;;;5.47;1.30;;;;;;;25.24;56.25;102023.91;8309829;28;20419;-60
2022/07/08 13:12:48;;;;;;;10.13;1.38;;;;;;;24.94;56.56;102030.66;8319361;28;20731;-60
2022/07/08 13:16:48;;;;;;;10.03;1.20;;;;;;;25.37;56.21;102021.28;8323960;28;20041;-61
2022/07/08 13:20:48;;;;;;;10.77;1.95;;;;;;;25.11;56.20;102031.25;8316774;28;20269;-61
2022/07/08 13:24:49;;;;;;;8.40;1.03;;;;;;;25.01;57.31;102024.13;8323619;28;20037;-61
2022/07/08 13:28:51;;;;;;;8.05;1.40;;;;;;;24.74;56.69;102026.81;8322320;28;20132;-61
2022/07/08 13:32:52;;;;;;;7.32;1.17;;;;;;;25.35;56.46;102026.19;8319065;28;20442;-61
2022/07/08 13:36:52;;;;;;;11.30;1.70;;;;;;;25.01;56.15;102015.81;8314569;28;20417;-61
2022/07/08 13:40:52;;;;;;;6.00;1.13;;;;;;;25.44;56.13;102013.91;8324729;28;20287;-61
2022/07/08 13:44:53;;;;;;;5.85;1.40;;;;;;;25.22;56.79;102014.09;8324920;28;20048;-61
2022/07/08 13:48:54;;;;;;;19.45;1.98;;;;;;;24.87;56.67;102022.28;8322352;28;20049;-61
2022/07/08 13:52:54;;;;;;;7.97;1.38;;;;;;;24.72;57.29;102017.84;8322542;28;20350;-61
2022/07/08 13:56:54;;;;;;;4.35;1.00;;;;;;;24.77;58.09;102009.84;8316561;28;20437;-61
2022/07/08 14:00:55;;;;;;;3.55;0.88;;;;;;;25.15;57.76;102000.19;8320558;28;20084;-61
2022/07/08 14:04:55;;;;;;;4.40;1.25;;;;;;;25.08;57.37;102002.06;8319188;28;20053;-61
2022/07/08 14:08:56;;;;;;;9.32;1.42;;;;;;;25.14;58.06;102000.38;8318750;28;20107;-61
2022/07/08 14:12:56;;;;;;;8.00;1.13;;;;;;;25.25;57.77;101991.56;8312209;28;20319;-61
2022/07/08 14:16:59;;;;;;;7.93;1.65;;;;;;;25.31;56.89;101983.28;8308156;28;20041;-61
2022/07/08 14:20:59;;;;;;;7.60;1.50;;;;;;;25.59;57.35;101980.53;8314719;28;20041;-61
2022/07/08 14:25:00;;;;;;;11.65;2.22;;;;;;;25.53;57.67;101978.59;8315905;28;20573;-61
2022/07/08 14:29:00;;;;;;;4.47;1.48;;;;;;;25.94;57.36;101983.09;8305570;28;20042;-61
2022/07/08 14:33:00;;;;;;;10.93;1.38;;;;;;;25.91;56.34;101977.09;8315737;28;20119;-61
2022/07/08 14:37:01;;;;;;;6.43;1.17;;;;;;;25.62;57.38;101978.25;8319712;28;20037;-61
2022/07/08 14:41:01;;;;;;;4.63;0.90;;;;;;;25.36;57.21;101978.03;8320467;28;20280;-61
2022/07/08 14:45:03;;;;;;;4.87;1.17;;;;;;;25.12;57.94;101972.91;8320583;28;20046;-61
2022/07/08 14:49:03;;;;;;;6.03;1.23;;;;;;;25.12;57.56;101969.31;8303090;28;20297;-61
2022/07/08 14:53:03;;;;;;;8.87;1.70;;;;;;;25.60;57.39;101974.81;8301257;28;20046;-61
2022/07/08 14:57:04;;;;;;;10.95;1.50;;;;;;;25.51;56.69;101973.25;8304904;28;20384;-61
2022/07/08 15:01:05;;;;;;;5.30;1.50;;;;;;;25.18;58.50;101974.88;8297806;28;20038;-62
2022/07/08 15:05:05;;;;;;;4.45;1.40;;;;;;;25.27;57.76;101970.91;8303718;28;20144;-62
2022/07/08 15:09:07;;;;;;;4.55;1.35;;;;;;;25.41;57.34;101970.00;8313793;28;20451;-62
2022/07/08 15:13:07;;;;;;;4.07;1.00;;;;;;;25.39;57.62;101966.56;8313112;28;20537;-62
2022/07/08 15:17:08;;;;;;;3.47;1.00;;;;;;;25.30;58.08;101956.66;8305791;28;20442;-62
2022/07/08 15:21:08;;;;;;;3.42;1.10;;;;;;;25.52;57.92;101961.09;8311911;28;20065;-62
2022/07/08 15:25:09;;;;;;;3.20;1.20;;;;;;;25.46;58.36;101950.81;8309833;28;20410;-62
2022/07/08 15:29:09;;;;;;;4.83;0.97;;;;;;;25.18;58.44;101949.94;8313680;28;20376;-62
2022/07/08 15:33:10;;;;;;;6.82;1.23;;;;;;;24.91;59.45;101946.09;8307500;28;20621;-62
2022/07/08 15:37:11;;;;;;;4.22;1.10;;;;;;;24.79;59.95;101946.81;8313946;28;20033;-62
2022/07/08 15:41:12;;;;;;;3.65;1.10;;;;;;;24.71;59.60;101944.22;8312815;28;20060;-62
2022/07/08 15:45:12;;;;;;;3.85;0.85;;;;;;;24.90;59.54;101940.78;8313610;28;20038;-62
2022/07/08 15:49:12;;;;;;;6.70;1.45;;;;;;;24.83;59.83;101931.56;8312761;28;20131;-62
2022/07/08 15:53:13;;;;;;;4.17;1.10;;;;;;;24.55;60.50;101938.91;8314097;28;20033;-62
2022/07/08 15:57:13;;;;;;;3.72;1.15;;;;;;;24.46;60.89;101934.56;8317144;28;20268;-62
2022/07/08 16:01:14;;;;;;;4.45;1.48;;;;;;;24.40;61.83;101940.88;8313117;28;20061;-62
2022/07/08 16:05:15;;;;;;;4.45;1.00;;;;;;;24.58;61.32;101938.53;8316633;28;20037;-62
2022/07/08 16:09:16;;;;;;;12.75;4.10;;;;;;;24.76;60.48;101920.41;8319039;28;20056;-62
2022/07/08 16:13:16;;;;;;;7.88;3.33;;;;;;;25.09;60.04;101925.41;8312872;28;20049;-62
2022/07/08 16:17:17;;;;;;;7.90;3.60;;;;;;;25.19;59.25;101926.75;8318767;28;20053;-62
2022/07/08 16:21:17;;;;;;;5.78;2.00;;;;;;;25.56;59.23;101918.09;8313309;28;20056;-62
2022/07/08 16:25:18;;;;;;;5.28;1.65;;;;;;;25.39;58.64;101926.91;8318908;28;20052;-62
2022/07/08 16:29:18;;;;;;;5.72;1.55;;;;;;;25.25;58.34;101920.38;8314686;28;20100;-62
2022/07/08 16:33:18;;;;;;;4.43;1.10;;;;;;;25.51;61.42;101931.69;8312967;28;20553;-62
2022/07/08 16:37:19;;;;;;;6.20;1.07;;;;;;;25.52;59.17;101916.78;8314029;28;20276;-62
2022/07/08 16:41:19;;;;;;;4.33;1.00;;;;;;;25.54;58.51;101914.66;8317824;28;20457;-62
2022/07/08 16:45:20;;;;;;;5.65;1.25;;;;;;;25.40;58.55;101921.16;8317572;28;20279;-62
2022/07/08 16:49:20;;;;;;;4.50;1.20;;;;;;;25.40;58.39;101912.84;8319921;28;20566;-62
2022/07/08 16:53:21;;;;;;;7.30;1.13;;;;;;;25.36;58.30;101906.03;8309184;28;20060;-62
2022/07/08 16:57:21;;;;;;;5.57;1.60;;;;;;;25.57;59.34;101908.72;8317916;28;20088;-62
2022/07/08 17:01:22;;;;;;;7.32;1.10;;;;;;;25.44;58.39;101902.25;8308696;28;20080;-62
2022/07/08 17:05:22;;;;;;;4.88;1.50;;;;;;;25.29;58.94;101896.78;8310092;28;20498;-62
2022/07/08 17:09:22;;;;;;;6.23;1.53;;;;;;;25.31;59.20;101883.59;8310507;28;20550;-62
2022/07/08 17:13:23;;;;;;;4.10;0.80;;;;;;;25.28;58.35;101892.28;8308896;28;20033;-62
2022/07/08 17:17:23;;;;;;;2.83;1.20;;;;;;;25.36;59.37;101894.94;8310407;28;20304;-62
2022/07/08 17:21:29;;;;;;;3.95;1.15;;;;;;;25.10;59.56;101891.97;8309016;28;20041;-62
2022/07/08 17:25:29;;;;;;;4.63;1.05;;;;;;;24.97;60.17;101889.09;8298978;28;20089;-62
2022/07/08 17:30:01;;;;;;;4.43;1.15;;;;;;;24.78;60.00;101885.13;8310836;28;20872;-62
2022/07/08 17:33:50;;;;;;;4.57;1.20;;;;;;;24.85;60.22;101885.16;8299119;28;20045;-62
2022/07/08 17:37:50;;;;;;;4.00;1.10;;;;;;;24.82;60.46;101880.03;8288706;28;20426;-62
2022/07/08 17:41:51;;;;;;;9.25;1.52;;;;;;;24.89;60.53;101883.72;8304983;28;20033;-62
2022/07/08 17:45:52;;;;;;;5.13;1.23;;;;;;;24.82;60.94;101874.47;8303584;28;20049;-62
2022/07/08 17:49:52;;;;;;;7.03;1.25;;;;;;;24.71;61.92;101872.28;8308700;28;20280;-62
2022/07/08 17:53:53;;;;;;;6.72;1.08;;;;;;;24.60;61.90;101870.00;8306324;28;20056;-62
2022/07/08 17:57:53;;;;;;;9.40;1.50;;;;;;;24.45;62.38;101861.78;8310290;28;20111;-62
2022/07/08 18:01:53;;;;;;;6.78;1.02;;;;;;;24.45;63.34;101872.00;8315575;28;20283;-62
2022/07/08 18:05:54;;;;;;;5.68;1.08;;;;;;;24.34;63.00;101864.25;8310361;28;20121;-62
2022/07/08 18:09:56;;;;;;;7.82;1.10;;;;;;;24.31;63.33;101864.63;8312903;28;20380;-62
2022/07/08 18:13:56;;;;;;;7.45;1.00;;;;;;;24.29;63.05;101863.97;8321727;28;20049;-62
2022/07/08 18:17:57;;;;;;;5.53;1.23;;;;;;;24.27;62.86;101861.41;8320928;28;20065;-62
2022/07/08 18:21:57;;;;;;;5.87;1.20;;;;;;;24.27;62.89;101852.25;8320944;28;20068;-62
2022/07/08 18:25:58;;;;;;;4.20;1.10;;;;;;;24.29;62.84;101856.53;8319797;28;20362;-62
2022/07/08 18:29:58;;;;;;;7.55;1.20;;;;;;;24.27;63.34;101855.00;8314074;28;20366;-62
2022/07/08 18:33:58;;;;;;;5.50;1.58;;;;;;;24.33;63.67;101851.44;8295200;28;20524;-62
2022/07/08 18:37:59;;;;;;;6.20;1.10;;;;;;;24.01;64.86;101851.97;8297953;28;20124;-62
2022/07/08 18:41:59;;;;;;;4.25;1.02;;;;;;;23.80;65.92;101855.53;8316242;28;20456;-62